sensor_id;sensor_type;location;lat;lon;timestamp;temperature;humidity
42019;DHT22;27703;51.980;5.848;2023-12-20T00:00:53;6.70;99.90
42019;DHT22;27703;51.980;5.848;2023-12-20T00:03:19;6.80;99.90
42019;DHT22;27703;51.980;5.848;2023-12-20T00:05:44;6.70;99.90
42019;DHT22;27703;51.980;5.848;2023-12-20T00:08:10;6.70;99.90
42019;DHT22;27703;51.980;5.848;2023-12-20T00:10:35;6.70;99.90
42019;DHT22;27703;51.980;5.848;2023-12-20T00:13:01;6.70;99.90
42019;DHT22;27703;51.980;5.848;2023-12-20T00:15:26;6.70;99.90
42019;DHT22;27703;51.980;5.848;2023-12-20T00:17:52;6.70;99.90
42019;DHT22;27703;51.980;5.848;2023-12-20T00:20:17;6.70;99.90
42019;DHT22;27703;51.980;5.848;2023-12-20T00:22:43;6.70;99.90
42019;DHT22;27703;51.980;5.848;2023-12-20T00:25:08;6.80;99.90
42019;DHT22;27703;51.980;5.848;2023-12-20T00:27:34;6.80;99.90
42019;DHT22;27703;51.980;5.848;2023-12-20T00:30:00;6.80;99.90
42019;DHT22;27703;51.980;5.848;2023-12-20T00:32:25;6.70;99.90
42019;DHT22;27703;51.980;5.848;2023-12-20T00:34:51;6.70;99.90
42019;DHT22;27703;51.980;5.848;2023-12-20T00:37:16;6.70;99.90
42019;DHT22;27703;51.980;5.848;2023-12-20T00:39:42;6.70;99.90
42019;DHT22;27703;51.980;5.848;2023-12-20T00:42:07;6.70;99.90
42019;DHT22;27703;51.980;5.848;2023-12-20T00:44:33;6.60;99.90
42019;DHT22;27703;51.980;5.848;2023-12-20T00:46:58;6.60;99.90
42019;DHT22;27703;51.980;5.848;2023-12-20T00:49:24;6.60;99.90
42019;DHT22;27703;51.980;5.848;2023-12-20T00:51:49;6.60;99.90
42019;DHT22;27703;51.980;5.848;2023-12-20T00:54:16;6.60;99.90
42019;DHT22;27703;51.980;5.848;2023-12-20T00:56:41;6.50;99.90
42019;DHT22;27703;51.980;5.848;2023-12-20T00:59:07;6.50;99.90
42019;DHT22;27703;51.980;5.848;2023-12-20T01:01:32;6.50;99.90
42019;DHT22;27703;51.980;5.848;2023-12-20T01:03:58;6.50;99.90
42019;DHT22;27703;51.980;5.848;2023-12-20T01:06:24;6.50;99.90
42019;DHT22;27703;51.980;5.848;2023-12-20T01:08:49;6.50;99.90
42019;DHT22;27703;51.980;5.848;2023-12-20T01:11:15;6.50;99.90
42019;DHT22;27703;51.980;5.848;2023-12-20T01:13:40;6.40;99.90
42019;DHT22;27703;51.980;5.848;2023-12-20T01:16:06;6.40;99.90
42019;DHT22;27703;51.980;5.848;2023-12-20T01:18:31;6.40;99.90
42019;DHT22;27703;51.980;5.848;2023-12-20T01:21:02;6.40;99.90
42019;DHT22;27703;51.980;5.848;2023-12-20T01:23:28;6.40;99.90
42019;DHT22;27703;51.980;5.848;2023-12-20T01:25:54;6.40;99.90
42019;DHT22;27703;51.980;5.848;2023-12-20T01:28:19;6.30;99.90
42019;DHT22;27703;51.980;5.848;2023-12-20T01:30:45;6.30;99.90
42019;DHT22;27703;51.980;5.848;2023-12-20T01:33:10;6.30;99.90
42019;DHT22;27703;51.980;5.848;2023-12-20T01:35:36;6.30;99.90
42019;DHT22;27703;51.980;5.848;2023-12-20T01:38:02;6.30;99.90
42019;DHT22;27703;51.980;5.848;2023-12-20T01:40:28;6.30;99.90
42019;DHT22;27703;51.980;5.848;2023-12-20T01:43:01;6.30;99.90
42019;DHT22;27703;51.980;5.848;2023-12-20T01:45:27;6.30;99.90
42019;DHT22;27703;51.980;5.848;2023-12-20T01:47:54;6.30;99.90
42019;DHT22;27703;51.980;5.848;2023-12-20T01:50:20;6.30;99.90
42019;DHT22;27703;51.980;5.848;2023-12-20T01:52:46;6.30;99.90
42019;DHT22;27703;51.980;5.848;2023-12-20T01:55:12;6.30;99.90
42019;DHT22;27703;51.980;5.848;2023-12-20T01:57:41;6.30;99.90
42019;DHT22;27703;51.980;5.848;2023-12-20T02:00:07;6.30;99.90
42019;DHT22;27703;51.980;5.848;2023-12-20T02:02:36;6.30;99.90
42019;DHT22;27703;51.980;5.848;2023-12-20T02:05:02;6.30;99.90
42019;DHT22;27703;51.980;5.848;2023-12-20T02:07:29;6.30;99.90
42019;DHT22;27703;51.980;5.848;2023-12-20T02:09:56;6.30;99.90
42019;DHT22;27703;51.980;5.848;2023-12-20T02:12:22;6.40;99.90
42019;DHT22;27703;51.980;5.848;2023-12-20T02:14:48;6.40;99.90
42019;DHT22;27703;51.980;5.848;2023-12-20T02:17:14;6.30;99.90
42019;DHT22;27703;51.980;5.848;2023-12-20T02:19:39;6.30;99.90
42019;DHT22;27703;51.980;5.848;2023-12-20T02:22:09;6.30;99.90
42019;DHT22;27703;51.980;5.848;2023-12-20T02:24:35;6.30;99.90
42019;DHT22;27703;51.980;5.848;2023-12-20T02:27:01;6.30;99.90
42019;DHT22;27703;51.980;5.848;2023-12-20T02:29:27;6.30;99.90
42019;DHT22;27703;51.980;5.848;2023-12-20T02:31:52;6.30;99.90
42019;DHT22;27703;51.980;5.848;2023-12-20T02:34:18;6.40;99.90
42019;DHT22;27703;51.980;5.848;2023-12-20T02:36:43;6.30;99.90
42019;DHT22;27703;51.980;5.848;2023-12-20T02:39:09;6.30;99.90
42019;DHT22;27703;51.980;5.848;2023-12-20T02:41:34;6.30;99.90
42019;DHT22;27703;51.980;5.848;2023-12-20T02:44:01;6.40;99.90
42019;DHT22;27703;51.980;5.848;2023-12-20T02:46:27;6.40;99.90
42019;DHT22;27703;51.980;5.848;2023-12-20T02:48:52;6.40;99.90
42019;DHT22;27703;51.980;5.848;2023-12-20T02:51:18;6.40;99.90
42019;DHT22;27703;51.980;5.848;2023-12-20T02:53:44;6.40;99.90
42019;DHT22;27703;51.980;5.848;2023-12-20T02:56:09;6.40;99.90
42019;DHT22;27703;51.980;5.848;2023-12-20T02:58:35;6.40;99.90
42019;DHT22;27703;51.980;5.848;2023-12-20T03:01:01;6.50;99.90
42019;DHT22;27703;51.980;5.848;2023-12-20T03:03:26;6.50;99.90
42019;DHT22;27703;51.980;5.848;2023-12-20T03:05:52;6.50;99.90
42019;DHT22;27703;51.980;5.848;2023-12-20T03:08:17;6.50;99.90
42019;DHT22;27703;51.980;5.848;2023-12-20T03:10:43;6.50;99.90
42019;DHT22;27703;51.980;5.848;2023-12-20T03:13:09;6.50;99.90
42019;DHT22;27703;51.980;5.848;2023-12-20T03:15:34;6.50;99.90
42019;DHT22;27703;51.980;5.848;2023-12-20T03:18:00;6.50;99.90
42019;DHT22;27703;51.980;5.848;2023-12-20T03:20:25;6.50;99.90
42019;DHT22;27703;51.980;5.848;2023-12-20T03:22:51;6.50;99.90
42019;DHT22;27703;51.980;5.848;2023-12-20T03:25:17;6.50;99.90
42019;DHT22;27703;51.980;5.848;2023-12-20T03:27:42;6.50;99.90
42019;DHT22;27703;51.980;5.848;2023-12-20T03:30:08;6.50;99.90
42019;DHT22;27703;51.980;5.848;2023-12-20T03:32:34;6.40;99.90
42019;DHT22;27703;51.980;5.848;2023-12-20T03:35:00;6.40;99.90
42019;DHT22;27703;51.980;5.848;2023-12-20T03:37:25;6.40;99.90
42019;DHT22;27703;51.980;5.848;2023-12-20T03:39:51;6.40;99.90
42019;DHT22;27703;51.980;5.848;2023-12-20T03:42:16;6.40;99.90
42019;DHT22;27703;51.980;5.848;2023-12-20T03:44:42;6.40;99.90
42019;DHT22;27703;51.980;5.848;2023-12-20T03:47:07;6.40;99.90
42019;DHT22;27703;51.980;5.848;2023-12-20T03:49:33;6.40;99.90
42019;DHT22;27703;51.980;5.848;2023-12-20T03:51:58;6.40;99.90
42019;DHT22;27703;51.980;5.848;2023-12-20T03:54:24;6.40;99.90
42019;DHT22;27703;51.980;5.848;2023-12-20T03:56:50;6.40;99.90
42019;DHT22;27703;51.980;5.848;2023-12-20T03:59:15;6.40;99.90
42019;DHT22;27703;51.980;5.848;2023-12-20T04:01:44;6.40;99.90
42019;DHT22;27703;51.980;5.848;2023-12-20T04:04:13;6.40;99.90
42019;DHT22;27703;51.980;5.848;2023-12-20T04:06:39;6.50;99.90
42019;DHT22;27703;51.980;5.848;2023-12-20T04:09:04;6.50;99.90
42019;DHT22;27703;51.980;5.848;2023-12-20T04:11:30;6.50;99.90
42019;DHT22;27703;51.980;5.848;2023-12-20T04:13:55;6.50;99.90
42019;DHT22;27703;51.980;5.848;2023-12-20T04:16:21;6.50;99.90
42019;DHT22;27703;51.980;5.848;2023-12-20T04:18:46;6.50;99.90
42019;DHT22;27703;51.980;5.848;2023-12-20T04:21:12;6.50;99.90
42019;DHT22;27703;51.980;5.848;2023-12-20T04:23:37;6.60;99.90
42019;DHT22;27703;51.980;5.848;2023-12-20T04:26:03;6.60;99.90
42019;DHT22;27703;51.980;5.848;2023-12-20T04:28:28;6.60;99.90
42019;DHT22;27703;51.980;5.848;2023-12-20T04:30:57;6.60;99.90
42019;DHT22;27703;51.980;5.848;2023-12-20T04:33:22;6.60;99.90
42019;DHT22;27703;51.980;5.848;2023-12-20T04:35:48;6.60;99.90
42019;DHT22;27703;51.980;5.848;2023-12-20T04:38:14;6.60;99.90
42019;DHT22;27703;51.980;5.848;2023-12-20T04:40:39;6.60;99.90
42019;DHT22;27703;51.980;5.848;2023-12-20T04:43:06;6.60;99.90
42019;DHT22;27703;51.980;5.848;2023-12-20T04:45:32;6.70;99.90
42019;DHT22;27703;51.980;5.848;2023-12-20T04:47:57;6.70;99.90
42019;DHT22;27703;51.980;5.848;2023-12-20T04:50:23;6.70;99.90
42019;DHT22;27703;51.980;5.848;2023-12-20T04:52:49;6.70;99.90
42019;DHT22;27703;51.980;5.848;2023-12-20T04:55:14;6.70;99.90
42019;DHT22;27703;51.980;5.848;2023-12-20T04:57:40;6.70;99.90
42019;DHT22;27703;51.980;5.848;2023-12-20T05:00:06;6.70;99.90
42019;DHT22;27703;51.980;5.848;2023-12-20T05:02:34;6.80;99.90
42019;DHT22;27703;51.980;5.848;2023-12-20T05:04:59;6.80;99.90
42019;DHT22;27703;51.980;5.848;2023-12-20T05:07:25;6.80;99.90
42019;DHT22;27703;51.980;5.848;2023-12-20T05:09:50;6.80;99.90
42019;DHT22;27703;51.980;5.848;2023-12-20T05:12:16;6.80;99.90
42019;DHT22;27703;51.980;5.848;2023-12-20T05:14:41;6.90;99.90
42019;DHT22;27703;51.980;5.848;2023-12-20T05:17:07;6.90;99.90
42019;DHT22;27703;51.980;5.848;2023-12-20T05:19:32;6.90;99.90
42019;DHT22;27703;51.980;5.848;2023-12-20T05:22:03;6.90;99.90
42019;DHT22;27703;51.980;5.848;2023-12-20T05:24:29;7.00;99.90
42019;DHT22;27703;51.980;5.848;2023-12-20T05:26:54;6.90;99.90
42019;DHT22;27703;51.980;5.848;2023-12-20T05:29:20;7.00;99.90
42019;DHT22;27703;51.980;5.848;2023-12-20T05:31:45;7.00;99.90
42019;DHT22;27703;51.980;5.848;2023-12-20T05:34:11;7.00;99.90
42019;DHT22;27703;51.980;5.848;2023-12-20T05:36:37;7.00;99.90
42019;DHT22;27703;51.980;5.848;2023-12-20T05:39:04;7.00;99.90
42019;DHT22;27703;51.980;5.848;2023-12-20T05:41:30;7.00;99.90
42019;DHT22;27703;51.980;5.848;2023-12-20T05:43:56;7.00;99.90
42019;DHT22;27703;51.980;5.848;2023-12-20T05:46:23;7.00;99.90
42019;DHT22;27703;51.980;5.848;2023-12-20T05:48:49;7.10;99.90
42019;DHT22;27703;51.980;5.848;2023-12-20T05:51:15;7.10;99.90
42019;DHT22;27703;51.980;5.848;2023-12-20T05:53:40;7.10;99.90
42019;DHT22;27703;51.980;5.848;2023-12-20T05:56:06;7.10;99.90
42019;DHT22;27703;51.980;5.848;2023-12-20T05:58:32;7.10;99.90
42019;DHT22;27703;51.980;5.848;2023-12-20T06:00:58;7.10;99.90
42019;DHT22;27703;51.980;5.848;2023-12-20T06:03:23;7.20;99.90
42019;DHT22;27703;51.980;5.848;2023-12-20T06:05:49;7.10;99.90
42019;DHT22;27703;51.980;5.848;2023-12-20T06:08:15;7.10;99.90
42019;DHT22;27703;51.980;5.848;2023-12-20T06:10:40;7.20;99.90
42019;DHT22;27703;51.980;5.848;2023-12-20T06:13:06;7.20;99.90
42019;DHT22;27703;51.980;5.848;2023-12-20T06:15:32;7.20;99.90
42019;DHT22;27703;51.980;5.848;2023-12-20T06:17:58;7.20;99.90
42019;DHT22;27703;51.980;5.848;2023-12-20T06:20:24;7.20;99.90
42019;DHT22;27703;51.980;5.848;2023-12-20T06:22:50;7.20;99.90
42019;DHT22;27703;51.980;5.848;2023-12-20T06:25:16;7.20;99.90
42019;DHT22;27703;51.980;5.848;2023-12-20T06:27:41;7.20;99.90
42019;DHT22;27703;51.980;5.848;2023-12-20T06:30:08;7.20;99.90
42019;DHT22;27703;51.980;5.848;2023-12-20T06:32:36;7.20;99.90
42019;DHT22;27703;51.980;5.848;2023-12-20T06:35:03;7.20;99.90
42019;DHT22;27703;51.980;5.848;2023-12-20T06:37:30;7.20;99.90
42019;DHT22;27703;51.980;5.848;2023-12-20T06:39:55;7.20;99.90
42019;DHT22;27703;51.980;5.848;2023-12-20T06:42:22;7.20;99.90
42019;DHT22;27703;51.980;5.848;2023-12-20T06:44:47;7.20;99.90
42019;DHT22;27703;51.980;5.848;2023-12-20T06:47:13;7.20;99.90
42019;DHT22;27703;51.980;5.848;2023-12-20T06:49:39;7.20;99.90
42019;DHT22;27703;51.980;5.848;2023-12-20T06:52:05;7.20;99.90
42019;DHT22;27703;51.980;5.848;2023-12-20T06:54:31;7.30;99.90
42019;DHT22;27703;51.980;5.848;2023-12-20T06:56:56;7.30;99.90
42019;DHT22;27703;51.980;5.848;2023-12-20T06:59:22;7.30;99.90
42019;DHT22;27703;51.980;5.848;2023-12-20T07:01:48;7.30;99.90
42019;DHT22;27703;51.980;5.848;2023-12-20T07:04:15;7.30;99.90
42019;DHT22;27703;51.980;5.848;2023-12-20T07:06:41;7.30;99.90
42019;DHT22;27703;51.980;5.848;2023-12-20T07:09:07;7.30;99.90
42019;DHT22;27703;51.980;5.848;2023-12-20T07:11:32;7.30;99.90
42019;DHT22;27703;51.980;5.848;2023-12-20T07:13:58;7.30;99.90
42019;DHT22;27703;51.980;5.848;2023-12-20T07:16:24;7.30;99.90
42019;DHT22;27703;51.980;5.848;2023-12-20T07:18:50;7.30;99.90
42019;DHT22;27703;51.980;5.848;2023-12-20T07:21:15;7.30;99.90
42019;DHT22;27703;51.980;5.848;2023-12-20T07:23:41;7.30;99.90
42019;DHT22;27703;51.980;5.848;2023-12-20T07:26:06;7.30;99.90
42019;DHT22;27703;51.980;5.848;2023-12-20T07:28:32;7.30;99.90
42019;DHT22;27703;51.980;5.848;2023-12-20T07:30:57;7.30;99.90
42019;DHT22;27703;51.980;5.848;2023-12-20T07:33:23;7.30;99.90
42019;DHT22;27703;51.980;5.848;2023-12-20T07:35:48;7.30;99.90
42019;DHT22;27703;51.980;5.848;2023-12-20T07:38:14;7.30;99.90
42019;DHT22;27703;51.980;5.848;2023-12-20T07:40:40;7.30;99.90
42019;DHT22;27703;51.980;5.848;2023-12-20T07:43:05;7.40;99.90
42019;DHT22;27703;51.980;5.848;2023-12-20T07:45:31;7.30;99.90
42019;DHT22;27703;51.980;5.848;2023-12-20T07:47:56;7.30;99.90
42019;DHT22;27703;51.980;5.848;2023-12-20T07:50:22;7.40;99.90
42019;DHT22;27703;51.980;5.848;2023-12-20T07:52:47;7.30;99.90
42019;DHT22;27703;51.980;5.848;2023-12-20T07:55:13;7.40;99.90
42019;DHT22;27703;51.980;5.848;2023-12-20T07:57:38;7.40;99.90
42019;DHT22;27703;51.980;5.848;2023-12-20T08:00:05;7.40;99.90
42019;DHT22;27703;51.980;5.848;2023-12-20T08:02:30;7.40;99.90
42019;DHT22;27703;51.980;5.848;2023-12-20T08:04:56;7.40;99.90
42019;DHT22;27703;51.980;5.848;2023-12-20T08:07:22;7.50;99.90
42019;DHT22;27703;51.980;5.848;2023-12-20T08:12:22;7.50;99.90
42019;DHT22;27703;51.980;5.848;2023-12-20T08:14:48;7.50;99.90
42019;DHT22;27703;51.980;5.848;2023-12-20T08:17:14;7.50;99.90
42019;DHT22;27703;51.980;5.848;2023-12-20T08:19:41;7.50;99.90
42019;DHT22;27703;51.980;5.848;2023-12-20T08:22:07;7.50;99.90
42019;DHT22;27703;51.980;5.848;2023-12-20T08:24:32;7.60;99.90
42019;DHT22;27703;51.980;5.848;2023-12-20T08:26:58;7.60;99.90
42019;DHT22;27703;51.980;5.848;2023-12-20T08:29:23;7.50;99.90
42019;DHT22;27703;51.980;5.848;2023-12-20T08:31:52;7.60;99.90
42019;DHT22;27703;51.980;5.848;2023-12-20T08:34:19;7.60;99.90
42019;DHT22;27703;51.980;5.848;2023-12-20T08:36:45;7.60;99.90
42019;DHT22;27703;51.980;5.848;2023-12-20T08:39:10;7.60;99.90
42019;DHT22;27703;51.980;5.848;2023-12-20T08:41:36;7.60;99.90
42019;DHT22;27703;51.980;5.848;2023-12-20T08:44:03;7.60;99.90
42019;DHT22;27703;51.980;5.848;2023-12-20T08:46:29;7.60;99.90
42019;DHT22;27703;51.980;5.848;2023-12-20T08:48:54;7.60;99.90
42019;DHT22;27703;51.980;5.848;2023-12-20T08:51:20;7.60;99.90
42019;DHT22;27703;51.980;5.848;2023-12-20T08:53:48;7.60;99.90
42019;DHT22;27703;51.980;5.848;2023-12-20T08:56:14;7.60;99.90
42019;DHT22;27703;51.980;5.848;2023-12-20T08:58:40;7.60;99.90
42019;DHT22;27703;51.980;5.848;2023-12-20T09:01:06;7.70;99.90
42019;DHT22;27703;51.980;5.848;2023-12-20T09:03:32;7.70;99.90
42019;DHT22;27703;51.980;5.848;2023-12-20T09:05:58;7.70;99.90
42019;DHT22;27703;51.980;5.848;2023-12-20T09:08:23;7.70;99.90
42019;DHT22;27703;51.980;5.848;2023-12-20T09:10:49;7.70;99.90
42019;DHT22;27703;51.980;5.848;2023-12-20T09:13:15;7.70;99.90
42019;DHT22;27703;51.980;5.848;2023-12-20T09:15:40;7.70;99.90
42019;DHT22;27703;51.980;5.848;2023-12-20T09:18:06;7.70;99.90
42019;DHT22;27703;51.980;5.848;2023-12-20T09:20:31;7.70;99.90
42019;DHT22;27703;51.980;5.848;2023-12-20T09:22:58;7.60;99.90
42019;DHT22;27703;51.980;5.848;2023-12-20T09:25:24;7.70;99.90
42019;DHT22;27703;51.980;5.848;2023-12-20T09:27:51;7.60;99.90
42019;DHT22;27703;51.980;5.848;2023-12-20T09:30:17;7.60;99.90
42019;DHT22;27703;51.980;5.848;2023-12-20T09:32:43;7.60;99.90
42019;DHT22;27703;51.980;5.848;2023-12-20T09:35:09;7.60;99.90
42019;DHT22;27703;51.980;5.848;2023-12-20T09:37:34;7.50;99.90
42019;DHT22;27703;51.980;5.848;2023-12-20T09:40:00;7.50;99.90
42019;DHT22;27703;51.980;5.848;2023-12-20T09:42:48;7.50;99.90
42019;DHT22;27703;51.980;5.848;2023-12-20T09:45:20;7.50;99.90
42019;DHT22;27703;51.980;5.848;2023-12-20T09:47:46;7.50;99.90
42019;DHT22;27703;51.980;5.848;2023-12-20T09:50:12;7.50;99.90
42019;DHT22;27703;51.980;5.848;2023-12-20T09:52:39;7.50;99.90
42019;DHT22;27703;51.980;5.848;2023-12-20T09:55:05;7.50;99.90
42019;DHT22;27703;51.980;5.848;2023-12-20T09:57:32;7.50;99.90
42019;DHT22;27703;51.980;5.848;2023-12-20T09:59:58;7.50;99.90
42019;DHT22;27703;51.980;5.848;2023-12-20T10:02:25;7.60;99.90
42019;DHT22;27703;51.980;5.848;2023-12-20T10:04:54;7.50;99.90
42019;DHT22;27703;51.980;5.848;2023-12-20T10:07:19;7.60;99.90
42019;DHT22;27703;51.980;5.848;2023-12-20T10:09:46;7.60;99.90
42019;DHT22;27703;51.980;5.848;2023-12-20T10:12:12;7.60;99.90
42019;DHT22;27703;51.980;5.848;2023-12-20T10:14:39;7.70;99.90
42019;DHT22;27703;51.980;5.848;2023-12-20T10:17:05;7.70;99.90
42019;DHT22;27703;51.980;5.848;2023-12-20T10:19:32;7.70;99.90
42019;DHT22;27703;51.980;5.848;2023-12-20T10:21:59;7.70;99.90
42019;DHT22;27703;51.980;5.848;2023-12-20T10:24:25;7.70;99.90
42019;DHT22;27703;51.980;5.848;2023-12-20T10:27:07;7.80;99.90
42019;DHT22;27703;51.980;5.848;2023-12-20T10:29:33;7.80;99.90
42019;DHT22;27703;51.980;5.848;2023-12-20T10:31:59;7.80;99.90
42019;DHT22;27703;51.980;5.848;2023-12-20T10:34:25;7.80;99.90
42019;DHT22;27703;51.980;5.848;2023-12-20T10:36:52;7.90;99.90
42019;DHT22;27703;51.980;5.848;2023-12-20T10:39:17;7.90;99.90
42019;DHT22;27703;51.980;5.848;2023-12-20T10:41:45;7.90;99.90
42019;DHT22;27703;51.980;5.848;2023-12-20T10:44:12;7.90;99.90
42019;DHT22;27703;51.980;5.848;2023-12-20T10:46:39;7.90;99.90
42019;DHT22;27703;51.980;5.848;2023-12-20T10:49:07;8.00;99.90
42019;DHT22;27703;51.980;5.848;2023-12-20T10:51:34;8.00;99.90
42019;DHT22;27703;51.980;5.848;2023-12-20T10:54:00;8.00;99.90
42019;DHT22;27703;51.980;5.848;2023-12-20T10:56:29;8.00;99.90
42019;DHT22;27703;51.980;5.848;2023-12-20T10:58:57;7.90;99.90
42019;DHT22;27703;51.980;5.848;2023-12-20T11:01:29;8.00;99.90
42019;DHT22;27703;51.980;5.848;2023-12-20T11:03:55;8.00;99.90
42019;DHT22;27703;51.980;5.848;2023-12-20T11:06:29;8.00;99.90
42019;DHT22;27703;51.980;5.848;2023-12-20T11:09:24;8.10;99.90
42019;DHT22;27703;51.980;5.848;2023-12-20T11:12:19;8.10;99.90
42019;DHT22;27703;51.980;5.848;2023-12-20T11:14:53;8.10;99.90
42019;DHT22;27703;51.980;5.848;2023-12-20T11:17:19;8.10;99.90
42019;DHT22;27703;51.980;5.848;2023-12-20T11:22:25;8.10;99.90
42019;DHT22;27703;51.980;5.848;2023-12-20T11:24:52;8.20;99.90
42019;DHT22;27703;51.980;5.848;2023-12-20T11:27:18;8.20;99.90
42019;DHT22;27703;51.980;5.848;2023-12-20T11:29:52;8.20;99.90
42019;DHT22;27703;51.980;5.848;2023-12-20T11:34:58;8.30;99.90
42019;DHT22;27703;51.980;5.848;2023-12-20T11:37:37;8.30;99.90
42019;DHT22;27703;51.980;5.848;2023-12-20T11:40:06;8.30;99.90
42019;DHT22;27703;51.980;5.848;2023-12-20T11:42:39;8.30;99.90
42019;DHT22;27703;51.980;5.848;2023-12-20T11:45:08;8.40;99.90
42019;DHT22;27703;51.980;5.848;2023-12-20T11:47:34;8.40;99.90
42019;DHT22;27703;51.980;5.848;2023-12-20T11:50:00;8.50;99.90
42019;DHT22;27703;51.980;5.848;2023-12-20T11:52:29;8.50;99.90
42019;DHT22;27703;51.980;5.848;2023-12-20T11:54:54;8.50;99.90
42019;DHT22;27703;51.980;5.848;2023-12-20T11:57:20;8.60;99.90
42019;DHT22;27703;51.980;5.848;2023-12-20T11:59:46;8.60;99.90
42019;DHT22;27703;51.980;5.848;2023-12-20T12:02:12;8.60;99.90
42019;DHT22;27703;51.980;5.848;2023-12-20T12:04:37;8.60;99.90
42019;DHT22;27703;51.980;5.848;2023-12-20T12:07:03;8.70;99.90
42019;DHT22;27703;51.980;5.848;2023-12-20T12:09:29;8.70;99.90
42019;DHT22;27703;51.980;5.848;2023-12-20T12:11:55;8.70;99.90
42019;DHT22;27703;51.980;5.848;2023-12-20T12:14:20;8.70;99.90
42019;DHT22;27703;51.980;5.848;2023-12-20T12:16:46;8.70;99.90
42019;DHT22;27703;51.980;5.848;2023-12-20T12:19:25;8.80;99.90
42019;DHT22;27703;51.980;5.848;2023-12-20T12:21:51;8.80;99.90
42019;DHT22;27703;51.980;5.848;2023-12-20T12:24:20;8.80;99.90
42019;DHT22;27703;51.980;5.848;2023-12-20T12:26:50;8.80;99.90
42019;DHT22;27703;51.980;5.848;2023-12-20T12:29:16;8.90;99.90
42019;DHT22;27703;51.980;5.848;2023-12-20T12:31:42;8.90;99.90
42019;DHT22;27703;51.980;5.848;2023-12-20T12:34:07;8.90;99.90
42019;DHT22;27703;51.980;5.848;2023-12-20T12:36:34;9.00;99.90
42019;DHT22;27703;51.980;5.848;2023-12-20T12:39:02;9.00;99.90
42019;DHT22;27703;51.980;5.848;2023-12-20T12:41:30;9.00;99.90
42019;DHT22;27703;51.980;5.848;2023-12-20T12:43:55;8.90;99.90
42019;DHT22;27703;51.980;5.848;2023-12-20T12:46:21;8.90;99.90
42019;DHT22;27703;51.980;5.848;2023-12-20T12:48:47;8.90;99.90
42019;DHT22;27703;51.980;5.848;2023-12-20T12:51:12;8.90;99.90
42019;DHT22;27703;51.980;5.848;2023-12-20T12:53:39;8.80;99.90
42019;DHT22;27703;51.980;5.848;2023-12-20T12:56:05;8.80;99.90
42019;DHT22;27703;51.980;5.848;2023-12-20T12:58:31;8.80;99.90
42019;DHT22;27703;51.980;5.848;2023-12-20T13:00:57;8.80;99.90
42019;DHT22;27703;51.980;5.848;2023-12-20T13:03:23;8.90;99.90
42019;DHT22;27703;51.980;5.848;2023-12-20T13:05:49;8.90;99.90
42019;DHT22;27703;51.980;5.848;2023-12-20T13:08:15;8.90;99.90
42019;DHT22;27703;51.980;5.848;2023-12-20T13:10:41;8.90;99.90
42019;DHT22;27703;51.980;5.848;2023-12-20T13:13:07;8.90;99.90
42019;DHT22;27703;51.980;5.848;2023-12-20T13:15:33;8.90;99.90
42019;DHT22;27703;51.980;5.848;2023-12-20T13:17:58;8.90;99.90
42019;DHT22;27703;51.980;5.848;2023-12-20T13:20:25;8.90;99.90
42019;DHT22;27703;51.980;5.848;2023-12-20T13:22:50;8.90;99.90
42019;DHT22;27703;51.980;5.848;2023-12-20T13:25:16;9.00;99.90
42019;DHT22;27703;51.980;5.848;2023-12-20T13:27:41;9.00;99.90
42019;DHT22;27703;51.980;5.848;2023-12-20T13:30:07;9.00;99.90
42019;DHT22;27703;51.980;5.848;2023-12-20T13:32:33;9.00;99.90
42019;DHT22;27703;51.980;5.848;2023-12-20T13:34:58;8.90;99.90
42019;DHT22;27703;51.980;5.848;2023-12-20T13:37:24;9.00;99.90
42019;DHT22;27703;51.980;5.848;2023-12-20T13:39:49;9.00;99.90
42019;DHT22;27703;51.980;5.848;2023-12-20T13:42:15;8.90;99.90
42019;DHT22;27703;51.980;5.848;2023-12-20T13:44:41;8.90;99.90
42019;DHT22;27703;51.980;5.848;2023-12-20T13:47:06;8.90;99.90
42019;DHT22;27703;51.980;5.848;2023-12-20T13:49:33;9.00;99.90
42019;DHT22;27703;51.980;5.848;2023-12-20T13:51:58;8.90;99.90
42019;DHT22;27703;51.980;5.848;2023-12-20T13:54:24;8.90;99.90
42019;DHT22;27703;51.980;5.848;2023-12-20T13:56:50;9.00;99.90
42019;DHT22;27703;51.980;5.848;2023-12-20T13:59:15;8.90;99.90
42019;DHT22;27703;51.980;5.848;2023-12-20T14:01:41;8.90;99.90
42019;DHT22;27703;51.980;5.848;2023-12-20T14:04:07;9.00;99.90
42019;DHT22;27703;51.980;5.848;2023-12-20T14:06:33;8.90;99.90
42019;DHT22;27703;51.980;5.848;2023-12-20T14:08:58;9.00;99.90
42019;DHT22;27703;51.980;5.848;2023-12-20T14:11:28;8.90;99.90
42019;DHT22;27703;51.980;5.848;2023-12-20T14:13:53;9.00;99.90
42019;DHT22;27703;51.980;5.848;2023-12-20T14:16:26;9.00;99.90
42019;DHT22;27703;51.980;5.848;2023-12-20T14:18:51;9.00;99.90
42019;DHT22;27703;51.980;5.848;2023-12-20T14:21:22;9.00;99.90
42019;DHT22;27703;51.980;5.848;2023-12-20T14:23:49;9.00;99.90
42019;DHT22;27703;51.980;5.848;2023-12-20T14:26:14;9.00;99.90
42019;DHT22;27703;51.980;5.848;2023-12-20T14:28:41;9.00;99.90
42019;DHT22;27703;51.980;5.848;2023-12-20T14:31:07;9.00;99.90
42019;DHT22;27703;51.980;5.848;2023-12-20T14:33:34;9.00;99.90
42019;DHT22;27703;51.980;5.848;2023-12-20T14:36:00;9.00;99.90
42019;DHT22;27703;51.980;5.848;2023-12-20T14:38:25;9.00;99.90
42019;DHT22;27703;51.980;5.848;2023-12-20T14:40:51;9.00;99.90
42019;DHT22;27703;51.980;5.848;2023-12-20T14:43:16;9.00;99.90
42019;DHT22;27703;51.980;5.848;2023-12-20T14:45:42;9.00;99.90
42019;DHT22;27703;51.980;5.848;2023-12-20T14:48:08;9.00;99.90
42019;DHT22;27703;51.980;5.848;2023-12-20T14:50:33;9.00;99.90
42019;DHT22;27703;51.980;5.848;2023-12-20T14:52:59;9.00;99.90
42019;DHT22;27703;51.980;5.848;2023-12-20T14:55:25;9.00;99.90
42019;DHT22;27703;51.980;5.848;2023-12-20T14:57:52;9.00;99.90
42019;DHT22;27703;51.980;5.848;2023-12-20T15:00:18;9.00;99.90
42019;DHT22;27703;51.980;5.848;2023-12-20T15:02:45;9.00;99.90
42019;DHT22;27703;51.980;5.848;2023-12-20T15:05:11;9.00;99.90
42019;DHT22;27703;51.980;5.848;2023-12-20T15:07:36;9.00;99.90
42019;DHT22;27703;51.980;5.848;2023-12-20T15:10:03;9.00;99.90
42019;DHT22;27703;51.980;5.848;2023-12-20T15:12:29;9.00;99.90
42019;DHT22;27703;51.980;5.848;2023-12-20T15:14:54;9.00;99.90
42019;DHT22;27703;51.980;5.848;2023-12-20T15:17:21;8.90;99.90
42019;DHT22;27703;51.980;5.848;2023-12-20T15:19:46;8.90;99.90
42019;DHT22;27703;51.980;5.848;2023-12-20T15:22:12;8.90;99.90
42019;DHT22;27703;51.980;5.848;2023-12-20T15:24:37;8.90;99.90
42019;DHT22;27703;51.980;5.848;2023-12-20T15:27:07;9.00;99.90
42019;DHT22;27703;51.980;5.848;2023-12-20T15:29:33;8.90;99.90
42019;DHT22;27703;51.980;5.848;2023-12-20T15:31:59;8.90;99.90
42019;DHT22;27703;51.980;5.848;2023-12-20T15:34:25;8.90;99.90
42019;DHT22;27703;51.980;5.848;2023-12-20T15:36:50;8.90;99.90
42019;DHT22;27703;51.980;5.848;2023-12-20T15:39:16;8.90;99.90
42019;DHT22;27703;51.980;5.848;2023-12-20T15:41:41;8.80;99.90
42019;DHT22;27703;51.980;5.848;2023-12-20T15:44:07;8.80;99.90
42019;DHT22;27703;51.980;5.848;2023-12-20T15:46:33;8.80;99.90